sensor_id;sensor_type;location;lat;lon;timestamp;pressure;altitude;pressure_sealevel;temperature;humidity
21877;BME280;11103;43.788;23.710;2023-04-21T00:00:58;-14922.56;;;-144.67;100.00
21877;BME280;11103;43.788;23.710;2023-04-21T00:03:24;-14922.56;;;-144.67;100.00
21877;BME280;11103;43.788;23.710;2023-04-21T00:05:52;-14922.56;;;-144.67;100.00
21877;BME280;11103;43.788;23.710;2023-04-21T00:08:18;-14922.56;;;-144.67;100.00
21877;BME280;11103;43.788;23.710;2023-04-21T00:10:44;-14922.56;;;-144.67;100.00
21877;BME280;11103;43.788;23.710;2023-04-21T00:13:11;-14922.56;;;-144.67;100.00
21877;BME280;11103;43.788;23.710;2023-04-21T00:15:36;-14922.56;;;-144.67;100.00
21877;BME280;11103;43.788;23.710;2023-04-21T00:18:02;-14922.56;;;-144.67;100.00
21877;BME280;11103;43.788;23.710;2023-04-21T00:20:28;-14922.56;;;-144.67;100.00
21877;BME280;11103;43.788;23.710;2023-04-21T00:22:55;-14922.56;;;-144.67;100.00
21877;BME280;11103;43.788;23.710;2023-04-21T00:25:21;-14922.56;;;-144.67;100.00
21877;BME280;11103;43.788;23.710;2023-04-21T00:27:47;-14922.56;;;-144.67;100.00
21877;BME280;11103;43.788;23.710;2023-04-21T00:30:13;-14922.56;;;-144.67;100.00
21877;BME280;11103;43.788;23.710;2023-04-21T00:32:38;-14922.56;;;-144.67;100.00
21877;BME280;11103;43.788;23.710;2023-04-21T00:35:04;-14922.56;;;-144.67;100.00
21877;BME280;11103;43.788;23.710;2023-04-21T00:37:30;-14922.56;;;-144.67;100.00
21877;BME280;11103;43.788;23.710;2023-04-21T00:39:56;-14922.56;;;-144.67;100.00
21877;BME280;11103;43.788;23.710;2023-04-21T00:42:23;-14922.56;;;-144.67;100.00
21877;BME280;11103;43.788;23.710;2023-04-21T00:44:48;-14922.56;;;-144.67;100.00
21877;BME280;11103;43.788;23.710;2023-04-21T00:47:14;-14922.56;;;-144.67;100.00
21877;BME280;11103;43.788;23.710;2023-04-21T00:49:39;-14922.56;;;-144.67;100.00
21877;BME280;11103;43.788;23.710;2023-04-21T00:52:05;-14922.56;;;-144.67;100.00
21877;BME280;11103;43.788;23.710;2023-04-21T00:54:31;-14922.56;;;-144.67;100.00
21877;BME280;11103;43.788;23.710;2023-04-21T00:56:57;-14922.56;;;-144.67;100.00
21877;BME280;11103;43.788;23.710;2023-04-21T00:59:23;-14922.56;;;-144.67;100.00
21877;BME280;11103;43.788;23.710;2023-04-21T01:01:48;-14922.56;;;-144.67;100.00
21877;BME280;11103;43.788;23.710;2023-04-21T01:04:14;-14922.56;;;-144.67;100.00
21877;BME280;11103;43.788;23.710;2023-04-21T01:06:40;-14922.56;;;-144.67;100.00
21877;BME280;11103;43.788;23.710;2023-04-21T01:09:06;-14922.56;;;-144.67;100.00
21877;BME280;11103;43.788;23.710;2023-04-21T01:11:32;-14922.56;;;-144.67;100.00
21877;BME280;11103;43.788;23.710;2023-04-21T01:13:57;-14922.56;;;-144.67;100.00
21877;BME280;11103;43.788;23.710;2023-04-21T01:16:23;-14922.56;;;-144.67;100.00
21877;BME280;11103;43.788;23.710;2023-04-21T01:18:52;-14922.56;;;-144.67;100.00
21877;BME280;11103;43.788;23.710;2023-04-21T01:21:18;-14922.56;;;-144.67;100.00
21877;BME280;11103;43.788;23.710;2023-04-21T01:23:44;-14922.56;;;-144.67;100.00
21877;BME280;11103;43.788;23.710;2023-04-21T01:26:10;-14922.56;;;-144.67;100.00
21877;BME280;11103;43.788;23.710;2023-04-21T01:28:35;-14922.56;;;-144.67;100.00
21877;BME280;11103;43.788;23.710;2023-04-21T01:31:01;-14922.56;;;-144.67;100.00
21877;BME280;11103;43.788;23.710;2023-04-21T01:33:27;-14922.56;;;-144.67;100.00
21877;BME280;11103;43.788;23.710;2023-04-21T01:35:52;-14922.56;;;-144.67;100.00
21877;BME280;11103;43.788;23.710;2023-04-21T01:38:17;-14922.56;;;-144.67;100.00
21877;BME280;11103;43.788;23.710;2023-04-21T01:40:51;-14922.56;;;-144.67;100.00
21877;BME280;11103;43.788;23.710;2023-04-21T01:43:19;-14922.56;;;-144.67;100.00
21877;BME280;11103;43.788;23.710;2023-04-21T01:45:46;-14922.56;;;-144.67;100.00
21877;BME280;11103;43.788;23.710;2023-04-21T01:48:11;-14922.56;;;-144.67;100.00
21877;BME280;11103;43.788;23.710;2023-04-21T01:50:36;-14922.56;;;-144.67;100.00
21877;BME280;11103;43.788;23.710;2023-04-21T01:53:02;-14922.56;;;-144.67;100.00
21877;BME280;11103;43.788;23.710;2023-04-21T01:55:27;-14922.56;;;-144.67;100.00
21877;BME280;11103;43.788;23.710;2023-04-21T01:57:53;-14922.56;;;-144.67;100.00
21877;BME280;11103;43.788;23.710;2023-04-21T02:00:21;-14922.56;;;-144.67;100.00
21877;BME280;11103;43.788;23.710;2023-04-21T02:02:47;-14922.56;;;-144.67;100.00
21877;BME280;11103;43.788;23.710;2023-04-21T02:05:12;-14922.56;;;-144.67;100.00
21877;BME280;11103;43.788;23.710;2023-04-21T02:07:38;-14922.56;;;-144.67;100.00
21877;BME280;11103;43.788;23.710;2023-04-21T02:10:04;-14922.56;;;-144.67;100.00
21877;BME280;11103;43.788;23.710;2023-04-21T02:12:29;-14922.56;;;-144.67;100.00
21877;BME280;11103;43.788;23.710;2023-04-21T02:14:55;-14922.56;;;-144.67;100.00
21877;BME280;11103;43.788;23.710;2023-04-21T02:17:20;-14922.56;;;-144.67;100.00
21877;BME280;11103;43.788;23.710;2023-04-21T02:19:46;-14922.56;;;-144.67;100.00
21877;BME280;11103;43.788;23.710;2023-04-21T02:22:12;-14922.56;;;-144.67;100.00
21877;BME280;11103;43.788;23.710;2023-04-21T02:24:37;-14922.56;;;-144.67;100.00
21877;BME280;11103;43.788;23.710;2023-04-21T02:27:03;-14922.56;;;-144.67;100.00
21877;BME280;11103;43.788;23.710;2023-04-21T02:29:29;-14922.56;;;-144.67;100.00
21877;BME280;11103;43.788;23.710;2023-04-21T02:31:54;-14922.56;;;-144.67;100.00
21877;BME280;11103;43.788;23.710;2023-04-21T02:34:20;-14922.56;;;-144.67;100.00
21877;BME280;11103;43.788;23.710;2023-04-21T02:36:46;-14922.56;;;-144.67;100.00
21877;BME280;11103;43.788;23.710;2023-04-21T02:39:11;-14922.56;;;-144.67;100.00
21877;BME280;11103;43.788;23.710;2023-04-21T02:41:37;-14922.56;;;-144.67;100.00
21877;BME280;11103;43.788;23.710;2023-04-21T02:44:03;-14922.56;;;-144.67;100.00
21877;BME280;11103;43.788;23.710;2023-04-21T02:46:28;-14922.56;;;-144.67;100.00
21877;BME280;11103;43.788;23.710;2023-04-21T02:48:55;-14922.56;;;-144.67;100.00
21877;BME280;11103;43.788;23.710;2023-04-21T02:51:20;-14922.56;;;-144.67;100.00
21877;BME280;11103;43.788;23.710;2023-04-21T02:53:46;-14922.56;;;-144.67;100.00
21877;BME280;11103;43.788;23.710;2023-04-21T02:56:11;-14922.56;;;-144.67;100.00
21877;BME280;11103;43.788;23.710;2023-04-21T02:58:37;-14922.56;;;-144.67;100.00
21877;BME280;11103;43.788;23.710;2023-04-21T03:01:03;-14922.56;;;-144.67;100.00
21877;BME280;11103;43.788;23.710;2023-04-21T03:03:30;-14922.56;;;-144.67;100.00
21877;BME280;11103;43.788;23.710;2023-04-21T03:06:00;-14922.56;;;-144.67;100.00
21877;BME280;11103;43.788;23.710;2023-04-21T03:08:26;-14922.56;;;-144.67;100.00
21877;BME280;11103;43.788;23.710;2023-04-21T03:10:52;-14922.56;;;-144.67;100.00
21877;BME280;11103;43.788;23.710;2023-04-21T03:13:18;-14922.56;;;-144.67;100.00
21877;BME280;11103;43.788;23.710;2023-04-21T03:15:43;-14922.56;;;-144.67;100.00
21877;BME280;11103;43.788;23.710;2023-04-21T03:18:09;-14922.56;;;-144.67;100.00
21877;BME280;11103;43.788;23.710;2023-04-21T03:20:35;-14922.56;;;-144.67;100.00
21877;BME280;11103;43.788;23.710;2023-04-21T03:23:01;-14922.56;;;-144.67;100.00
21877;BME280;11103;43.788;23.710;2023-04-21T03:25:26;-14922.56;;;-144.67;100.00
21877;BME280;11103;43.788;23.710;2023-04-21T03:27:55;-14922.56;;;-144.67;100.00
21877;BME280;11103;43.788;23.710;2023-04-21T03:30:21;-14922.56;;;-144.67;100.00
21877;BME280;11103;43.788;23.710;2023-04-21T03:32:47;-14922.56;;;-144.67;100.00
21877;BME280;11103;43.788;23.710;2023-04-21T03:35:12;-14922.56;;;-144.67;100.00
21877;BME280;11103;43.788;23.710;2023-04-21T03:37:38;-14922.56;;;-144.67;100.00
21877;BME280;11103;43.788;23.710;2023-04-21T03:40:04;-14922.56;;;-144.67;100.00
21877;BME280;11103;43.788;23.710;2023-04-21T03:42:36;-14922.56;;;-144.67;100.00
21877;BME280;11103;43.788;23.710;2023-04-21T03:45:06;-14922.56;;;-144.67;100.00
21877;BME280;11103;43.788;23.710;2023-04-21T03:47:31;-14922.56;;;-144.67;100.00
21877;BME280;11103;43.788;23.710;2023-04-21T03:49:57;-14922.56;;;-144.67;100.00
21877;BME280;11103;43.788;23.710;2023-04-21T03:52:23;-14922.56;;;-144.67;100.00
21877;BME280;11103;43.788;23.710;2023-04-21T03:54:49;-14922.56;;;-144.67;100.00
21877;BME280;11103;43.788;23.710;2023-04-21T03:57:14;-14922.56;;;-144.67;100.00
21877;BME280;11103;43.788;23.710;2023-04-21T03:59:40;-14922.56;;;-144.67;100.00
21877;BME280;11103;43.788;23.710;2023-04-21T04:02:06;-14922.56;;;-144.67;100.00
21877;BME280;11103;43.788;23.710;2023-04-21T04:04:31;-14922.56;;;-144.67;100.00
21877;BME280;11103;43.788;23.710;2023-04-21T04:06:57;-14922.56;;;-144.67;100.00
21877;BME280;11103;43.788;23.710;2023-04-21T04:09:22;-14922.56;;;-144.67;100.00
21877;BME280;11103;43.788;23.710;2023-04-21T04:11:48;-14922.56;;;-144.67;100.00
21877;BME280;11103;43.788;23.710;2023-04-21T04:14:14;-14922.56;;;-144.67;100.00
21877;BME280;11103;43.788;23.710;2023-04-21T04:16:39;-14922.56;;;-144.67;100.00
21877;BME280;11103;43.788;23.710;2023-04-21T04:19:06;-14922.56;;;-144.67;100.00
21877;BME280;11103;43.788;23.710;2023-04-21T04:21:31;-14922.56;;;-144.67;100.00
21877;BME280;11103;43.788;23.710;2023-04-21T04:23:57;-14922.56;;;-144.67;100.00
21877;BME280;11103;43.788;23.710;2023-04-21T04:26:23;-14922.56;;;-144.67;100.00
21877;BME280;11103;43.788;23.710;2023-04-21T04:28:50;-14922.56;;;-144.67;100.00
21877;BME280;11103;43.788;23.710;2023-04-21T04:31:15;-14922.56;;;-144.67;100.00
21877;BME280;11103;43.788;23.710;2023-04-21T04:33:41;-14922.56;;;-144.67;100.00
21877;BME280;11103;43.788;23.710;2023-04-21T04:36:07;-14922.56;;;-144.67;100.00
21877;BME280;11103;43.788;23.710;2023-04-21T04:38:32;-14922.56;;;-144.67;100.00
21877;BME280;11103;43.788;23.710;2023-04-21T04:40:59;-14922.56;;;-144.67;100.00
21877;BME280;11103;43.788;23.710;2023-04-21T04:43:26;-14922.56;;;-144.67;100.00
21877;BME280;11103;43.788;23.710;2023-04-21T04:45:52;-14922.56;;;-144.67;100.00
21877;BME280;11103;43.788;23.710;2023-04-21T04:48:17;-14922.56;;;-144.67;100.00
21877;BME280;11103;43.788;23.710;2023-04-21T04:50:43;-14922.56;;;-144.67;100.00
21877;BME280;11103;43.788;23.710;2023-04-21T04:53:09;-14922.56;;;-144.67;100.00
21877;BME280;11103;43.788;23.710;2023-04-21T04:55:34;-14922.56;;;-144.67;100.00
21877;BME280;11103;43.788;23.710;2023-04-21T04:58:00;-14922.56;;;-144.67;100.00
21877;BME280;11103;43.788;23.710;2023-04-21T05:00:26;-14922.56;;;-144.67;100.00
21877;BME280;11103;43.788;23.710;2023-04-21T05:02:53;-14922.56;;;-144.67;100.00
21877;BME280;11103;43.788;23.710;2023-04-21T05:05:18;-14922.56;;;-144.67;100.00
21877;BME280;11103;43.788;23.710;2023-04-21T05:07:46;-14922.56;;;-144.67;100.00
21877;BME280;11103;43.788;23.710;2023-04-21T05:10:11;-14922.56;;;-144.67;100.00
21877;BME280;11103;43.788;23.710;2023-04-21T05:12:36;-14922.56;;;-144.67;100.00
21877;BME280;11103;43.788;23.710;2023-04-21T05:15:02;-14922.56;;;-144.67;100.00
21877;BME280;11103;43.788;23.710;2023-04-21T05:17:28;-14922.56;;;-144.67;100.00
21877;BME280;11103;43.788;23.710;2023-04-21T05:19:55;-14922.56;;;-144.67;100.00
21877;BME280;11103;43.788;23.710;2023-04-21T05:22:20;-14922.56;;;-144.67;100.00
21877;BME280;11103;43.788;23.710;2023-04-21T05:24:46;-14922.56;;;-144.67;100.00
21877;BME280;11103;43.788;23.710;2023-04-21T05:27:11;-14922.56;;;-144.67;100.00
21877;BME280;11103;43.788;23.710;2023-04-21T05:29:36;-14922.56;;;-144.67;100.00
21877;BME280;11103;43.788;23.710;2023-04-21T05:32:02;-14922.56;;;-144.67;100.00
21877;BME280;11103;43.788;23.710;2023-04-21T05:34:27;-14922.56;;;-144.67;100.00
21877;BME280;11103;43.788;23.710;2023-04-21T05:36:53;-14922.56;;;-144.67;100.00
21877;BME280;11103;43.788;23.710;2023-04-21T05:39:18;-14922.56;;;-144.67;100.00
21877;BME280;11103;43.788;23.710;2023-04-21T05:41:44;-14922.56;;;-144.67;100.00
21877;BME280;11103;43.788;23.710;2023-04-21T05:44:09;-14922.56;;;-144.67;100.00
21877;BME280;11103;43.788;23.710;2023-04-21T05:46:35;-14922.56;;;-144.67;100.00
21877;BME280;11103;43.788;23.710;2023-04-21T05:49:00;-14922.56;;;-144.67;100.00
21877;BME280;11103;43.788;23.710;2023-04-21T05:51:28;-14922.56;;;-144.67;100.00
21877;BME280;11103;43.788;23.710;2023-04-21T05:53:54;-14922.56;;;-144.67;100.00
21877;BME280;11103;43.788;23.710;2023-04-21T05:56:19;-14922.56;;;-144.67;100.00
21877;BME280;11103;43.788;23.710;2023-04-21T05:58:45;-14922.56;;;-144.67;100.00
21877;BME280;11103;43.788;23.710;2023-04-21T06:01:11;-14922.56;;;-144.67;100.00
21877;BME280;11103;43.788;23.710;2023-04-21T06:03:37;-14922.56;;;-144.67;100.00
21877;BME280;11103;43.788;23.710;2023-04-21T06:06:04;-14922.56;;;-144.67;100.00
21877;BME280;11103;43.788;23.710;2023-04-21T06:08:31;-14922.56;;;-144.67;100.00
21877;BME280;11103;43.788;23.710;2023-04-21T06:10:56;-14922.56;;;-144.67;100.00
21877;BME280;11103;43.788;23.710;2023-04-21T06:13:21;-14922.56;;;-144.67;100.00
21877;BME280;11103;43.788;23.710;2023-04-21T06:15:47;-14922.56;;;-144.67;100.00
21877;BME280;11103;43.788;23.710;2023-04-21T06:18:12;-14922.56;;;-144.67;100.00
21877;BME280;11103;43.788;23.710;2023-04-21T06:20:38;-14922.56;;;-144.67;100.00
21877;BME280;11103;43.788;23.710;2023-04-21T06:23:05;-14922.56;;;-144.67;100.00
21877;BME280;11103;43.788;23.710;2023-04-21T06:25:30;-14922.56;;;-144.67;100.00
21877;BME280;11103;43.788;23.710;2023-04-21T06:27:55;-14922.56;;;-144.67;100.00
21877;BME280;11103;43.788;23.710;2023-04-21T06:30:21;-14922.56;;;-144.67;100.00
21877;BME280;11103;43.788;23.710;2023-04-21T06:32:46;-14922.56;;;-144.67;100.00
21877;BME280;11103;43.788;23.710;2023-04-21T06:35:13;-14922.56;;;-144.67;100.00
21877;BME280;11103;43.788;23.710;2023-04-21T06:37:42;-14922.56;;;-144.67;100.00
21877;BME280;11103;43.788;23.710;2023-04-21T06:40:08;-14922.56;;;-144.67;100.00
21877;BME280;11103;43.788;23.710;2023-04-21T06:42:33;-14922.56;;;-144.67;100.00
21877;BME280;11103;43.788;23.710;2023-04-21T06:44:58;-14922.56;;;-144.67;100.00
21877;BME280;11103;43.788;23.710;2023-04-21T06:47:24;-14922.56;;;-144.67;100.00
21877;BME280;11103;43.788;23.710;2023-04-21T06:49:50;-14922.56;;;-144.67;100.00
21877;BME280;11103;43.788;23.710;2023-04-21T06:52:15;-14922.56;;;-144.67;100.00
21877;BME280;11103;43.788;23.710;2023-04-21T06:54:41;-14922.56;;;-144.67;100.00
21877;BME280;11103;43.788;23.710;2023-04-21T06:57:06;-14922.56;;;-144.67;100.00
21877;BME280;11103;43.788;23.710;2023-04-21T06:59:32;-14922.56;;;-144.67;100.00
21877;BME280;11103;43.788;23.710;2023-04-21T07:01:58;-14922.56;;;-144.67;100.00
21877;BME280;11103;43.788;23.710;2023-04-21T07:04:24;-14922.56;;;-144.67;100.00
21877;BME280;11103;43.788;23.710;2023-04-21T07:06:54;-14922.56;;;-144.67;100.00
21877;BME280;11103;43.788;23.710;2023-04-21T07:09:20;-14922.56;;;-144.67;100.00
21877;BME280;11103;43.788;23.710;2023-04-21T07:11:45;-14922.56;;;-144.67;100.00
21877;BME280;11103;43.788;23.710;2023-04-21T07:14:11;-14922.56;;;-144.67;100.00
21877;BME280;11103;43.788;23.710;2023-04-21T07:16:36;-14922.56;;;-144.67;100.00
21877;BME280;11103;43.788;23.710;2023-04-21T07:19:02;-14922.56;;;-144.67;100.00
21877;BME280;11103;43.788;23.710;2023-04-21T07:21:27;-14922.56;;;-144.67;100.00
21877;BME280;11103;43.788;23.710;2023-04-21T07:23:54;-14922.56;;;-144.67;100.00
21877;BME280;11103;43.788;23.710;2023-04-21T07:26:20;-14922.56;;;-144.67;100.00
21877;BME280;11103;43.788;23.710;2023-04-21T07:28:45;-14922.56;;;-144.67;100.00
21877;BME280;11103;43.788;23.710;2023-04-21T07:31:11;-14922.56;;;-144.67;100.00
21877;BME280;11103;43.788;23.710;2023-04-21T07:33:36;-14922.56;;;-144.67;100.00
21877;BME280;11103;43.788;23.710;2023-04-21T07:36:01;-14922.56;;;-144.67;100.00
21877;BME280;11103;43.788;23.710;2023-04-21T07:38:27;-14922.56;;;-144.67;100.00
21877;BME280;11103;43.788;23.710;2023-04-21T07:40:52;-14922.56;;;-144.67;100.00
21877;BME280;11103;43.788;23.710;2023-04-21T07:43:18;-14922.56;;;-144.67;100.00
21877;BME280;11103;43.788;23.710;2023-04-21T07:45:44;-14922.56;;;-144.67;100.00
21877;BME280;11103;43.788;23.710;2023-04-21T07:48:10;-14922.56;;;-144.67;100.00
21877;BME280;11103;43.788;23.710;2023-04-21T07:50:35;-14922.56;;;-144.67;100.00
21877;BME280;11103;43.788;23.710;2023-04-21T07:53:01;-14922.56;;;-144.67;100.00
21877;BME280;11103;43.788;23.710;2023-04-21T07:55:28;-14922.56;;;-144.67;100.00
21877;BME280;11103;43.788;23.710;2023-04-21T07:57:53;-14922.56;;;-144.67;100.00
21877;BME280;11103;43.788;23.710;2023-04-21T08:00:19;-14922.56;;;-144.67;100.00
21877;BME280;11103;43.788;23.710;2023-04-21T08:02:45;-14922.56;;;-144.67;100.00
21877;BME280;11103;43.788;23.710;2023-04-21T08:05:10;-14922.56;;;-144.67;100.00
21877;BME280;11103;43.788;23.710;2023-04-21T08:07:35;-14922.56;;;-144.67;100.00
21877;BME280;11103;43.788;23.710;2023-04-21T08:10:01;-14922.56;;;-144.67;100.00
21877;BME280;11103;43.788;23.710;2023-04-21T08:12:27;-14922.56;;;-144.67;100.00
21877;BME280;11103;43.788;23.710;2023-04-21T08:14:52;-14922.56;;;-144.67;100.00
21877;BME280;11103;43.788;23.710;2023-04-21T08:17:18;-14922.56;;;-144.67;100.00
21877;BME280;11103;43.788;23.710;2023-04-21T08:19:43;-14922.56;;;-144.67;100.00
21877;BME280;11103;43.788;23.710;2023-04-21T08:22:08;-14922.56;;;-144.67;100.00
21877;BME280;11103;43.788;23.710;2023-04-21T08:24:34;-14922.56;;;-144.67;100.00
21877;BME280;11103;43.788;23.710;2023-04-21T08:27:00;-14922.56;;;-144.67;100.00
21877;BME280;11103;43.788;23.710;2023-04-21T08:29:27;-14922.56;;;-144.67;100.00
21877;BME280;11103;43.788;23.710;2023-04-21T08:31:52;-14922.56;;;-144.67;100.00
21877;BME280;11103;43.788;23.710;2023-04-21T08:34:17;-14922.56;;;-144.67;100.00
21877;BME280;11103;43.788;23.710;2023-04-21T08:36:44;-14922.56;;;-144.67;100.00
21877;BME280;11103;43.788;23.710;2023-04-21T08:39:11;-14922.56;;;-144.67;100.00
21877;BME280;11103;43.788;23.710;2023-04-21T08:41:38;-14922.56;;;-144.67;100.00
21877;BME280;11103;43.788;23.710;2023-04-21T08:44:05;-14922.56;;;-144.67;100.00
21877;BME280;11103;43.788;23.710;2023-04-21T08:46:31;-14922.56;;;-144.67;100.00
21877;BME280;11103;43.788;23.710;2023-04-21T08:48:57;-14922.56;;;-144.67;100.00
21877;BME280;11103;43.788;23.710;2023-04-21T08:51:26;-14922.56;;;-144.67;100.00
21877;BME280;11103;43.788;23.710;2023-04-21T08:53:54;-14922.56;;;-144.67;100.00
21877;BME280;11103;43.788;23.710;2023-04-21T08:56:19;-14922.56;;;-144.67;100.00
21877;BME280;11103;43.788;23.710;2023-04-21T08:58:45;-14922.56;;;-144.67;100.00
21877;BME280;11103;43.788;23.710;2023-04-21T09:01:10;-14922.56;;;-144.67;100.00
21877;BME280;11103;43.788;23.710;2023-04-21T09:03:36;-14922.56;;;-144.67;100.00
21877;BME280;11103;43.788;23.710;2023-04-21T09:06:04;-14922.56;;;-144.67;100.00
21877;BME280;11103;43.788;23.710;2023-04-21T09:08:30;-14922.56;;;-144.67;100.00
21877;BME280;11103;43.788;23.710;2023-04-21T09:10:58;-14922.56;;;-144.67;100.00
21877;BME280;11103;43.788;23.710;2023-04-21T09:13:34;-14922.56;;;-144.67;100.00
21877;BME280;11103;43.788;23.710;2023-04-21T09:16:02;-14922.56;;;-144.67;100.00
21877;BME280;11103;43.788;23.710;2023-04-21T09:18:29;-14922.56;;;-144.67;100.00
21877;BME280;11103;43.788;23.710;2023-04-21T09:21:09;-14922.56;;;-144.67;100.00
21877;BME280;11103;43.788;23.710;2023-04-21T09:23:48;-12955.44;;;-144.67;100.00
21877;BME280;11103;43.788;23.710;2023-04-21T09:26:14;-12709.66;;;-144.67;100.00
21877;BME280;11103;43.788;23.710;2023-04-21T09:28:45;-13692.72;;;-144.67;100.00
21877;BME280;11103;43.788;23.710;2023-04-21T09:31:18;-3602.19;;;-144.67;99.86
21877;BME280;11103;43.788;23.710;2023-04-21T09:33:49;-6805.00;;;-144.67;100.00
21877;BME280;11103;43.788;23.710;2023-04-21T09:36:25;-4834.41;;;-144.67;100.00
21877;BME280;11103;43.788;23.710;2023-04-21T09:38:59;-7789.84;;;-144.67;100.00
21877;BME280;11103;43.788;23.710;2023-04-21T09:41:25;-9758.66;;;-144.67;100.00
21877;BME280;11103;43.788;23.710;2023-04-21T09:43:51;-10250.69;;;-144.67;100.00
21877;BME280;11103;43.788;23.710;2023-04-21T09:46:17;-10988.56;;;-144.67;100.00
21877;BME280;11103;43.788;23.710;2023-04-21T09:48:45;-11480.41;;;-144.67;100.00
21877;BME280;11103;43.788;23.710;2023-04-21T09:51:12;-11726.28;;;-144.67;100.00
21877;BME280;11103;43.788;23.710;2023-04-21T09:53:39;-14922.56;;;-144.67;100.00
21877;BME280;11103;43.788;23.710;2023-04-21T09:56:09;-14922.56;;;-144.67;100.00
21877;BME280;11103;43.788;23.710;2023-04-21T09:58:57;-14922.56;;;-144.67;100.00
21877;BME280;11103;43.788;23.710;2023-04-21T10:01:26;-14922.56;;;-144.67;100.00
21877;BME280;11103;43.788;23.710;2023-04-21T10:03:54;-14922.56;;;-144.67;100.00
21877;BME280;11103;43.788;23.710;2023-04-21T10:06:20;-14922.56;;;-144.67;100.00
21877;BME280;11103;43.788;23.710;2023-04-21T10:08:46;-14922.56;;;-144.67;100.00
21877;BME280;11103;43.788;23.710;2023-04-21T10:11:14;-14922.56;;;-144.67;100.00
21877;BME280;11103;43.788;23.710;2023-04-21T10:13:40;-14922.56;;;-144.67;100.00
21877;BME280;11103;43.788;23.710;2023-04-21T10:16:07;-14922.56;;;-144.67;100.00
21877;BME280;11103;43.788;23.710;2023-04-21T10:18:37;-14922.56;;;-144.67;100.00
21877;BME280;11103;43.788;23.710;2023-04-21T10:21:06;-14922.56;;;-144.67;100.00
21877;BME280;11103;43.788;23.710;2023-04-21T10:23:46;-14429.81;;;-144.67;100.00
21877;BME280;11103;43.788;23.710;2023-04-21T10:26:24;-14922.56;;;-144.67;100.00
21877;BME280;11103;43.788;23.710;2023-04-21T10:29:00;-14922.56;;;-144.67;100.00
21877;BME280;11103;43.788;23.710;2023-04-21T10:31:36;-14922.56;;;-144.67;100.00
21877;BME280;11103;43.788;23.710;2023-04-21T10:39:43;-14675.47;;;-144.67;100.00
21877;BME280;11103;43.788;23.710;2023-04-21T10:44:50;-2616.09;;;-144.67;100.00
21877;BME280;11103;43.788;23.710;2023-04-21T10:47:37;-9512.63;;;-144.67;100.00
21877;BME280;11103;43.788;23.710;2023-04-21T10:50:27;-5327.19;;;-144.67;100.00
21877;BME280;11103;43.788;23.710;2023-04-21T10:52:59;-642.97;;;-144.67;99.08
21877;BME280;11103;43.788;23.710;2023-04-21T10:55:32;-8282.16;;;-144.67;100.00
21877;BME280;11103;43.788;23.710;2023-04-21T10:58:01;-2616.09;;;-144.67;100.00
21877;BME280;11103;43.788;23.710;2023-04-21T11:00:27;-1136.34;;;-144.67;100.00
21877;BME280;11103;43.788;23.710;2023-04-21T11:05:19;-13201.22;;;-144.67;100.00
21877;BME280;11103;43.788;23.710;2023-04-21T11:07:50;-9020.50;;;-144.67;100.00
21877;BME280;11103;43.788;23.710;2023-04-21T11:10:16;11963.59;;;-144.67;91.63
21877;BME280;11103;43.788;23.710;2023-04-21T11:12:41;31586.75;;;-144.67;85.22
21877;BME280;11103;43.788;23.710;2023-04-21T11:15:09;1825.09;;;-144.67;99.39
21877;BME280;11103;43.788;23.710;2023-04-21T11:17:35;5530.69;;;-144.67;96.87
21877;BME280;11103;43.788;23.710;2023-04-21T11:20:03;14441.13;;;-144.67;92.27
21877;BME280;11103;43.788;23.710;2023-04-21T11:22:31;8745.56;;;-144.67;94.92
21877;BME280;11103;43.788;23.710;2023-04-21T11:24:57;8250.78;;;-144.67;95.09
21877;BME280;11103;43.788;23.710;2023-04-21T11:27:25;12954.38;;;-144.67;93.17
21877;BME280;11103;43.788;23.710;2023-04-21T11:29:51;9982.91;;;-144.67;94.30
21877;BME280;11103;43.788;23.710;2023-04-21T11:32:17;16672.50;;;-144.67;91.07
21877;BME280;11103;43.788;23.710;2023-04-21T11:34:42;30092.31;;;-144.67;85.93
21877;BME280;11103;43.788;23.710;2023-04-21T11:37:15;39068.94;;;-144.67;83.29
21877;BME280;11103;43.788;23.710;2023-04-21T11:39:41;34827.00;;;-144.67;85.43
21877;BME280;11103;43.788;23.710;2023-04-21T11:42:08;29594.31;;;-144.67;86.69
21877;BME280;11103;43.788;23.710;2023-04-21T11:44:37;28598.56;;;-144.67;87.10
21877;BME280;11103;43.788;23.710;2023-04-21T11:47:23;38070.34;;;-144.67;83.87
21877;BME280;11103;43.788;23.710;2023-04-21T11:50:01;46818.09;;;-144.67;81.79
21877;BME280;11103;43.788;23.710;2023-04-21T11:52:33;50574.13;;;-144.67;81.10
21877;BME280;11103;43.788;23.710;2023-04-21T11:55:04;77298.75;;;-144.67;74.31
21877;BME280;11103;43.788;23.710;2023-04-21T11:57:31;74660.22;;;-144.67;75.57
21877;BME280;11103;43.788;23.710;2023-04-21T11:59:57;84012.66;;;-144.67;70.53
21877;BME280;11103;43.788;23.710;2023-04-21T12:02:26;52077.69;;;-144.67;81.58
21877;BME280;11103;43.788;23.710;2023-04-21T12:05:12;22878.66;;;-144.67;90.25
21877;BME280;11103;43.788;23.710;2023-04-21T12:07:40;43316.28;;;-144.67;83.04
21877;BME280;11103;43.788;23.710;2023-04-21T12:12:40;80999.66;;;-144.67;73.18
21877;BME280;11103;43.788;23.710;2023-04-21T12:15:07;84781.63;;;-144.67;65.54
21877;BME280;11103;43.788;23.710;2023-04-21T12:17:43;81941.78;;;-144.67;72.63
21877;BME280;11103;43.788;23.710;2023-04-21T12:20:09;84574.06;;;-144.67;67.05
21877;BME280;11103;43.788;23.710;2023-04-21T12:22:34;84653.13;;;-144.67;65.83
21877;BME280;11103;43.788;23.710;2023-04-21T12:25:00;84708.47;;;-144.67;66.68